ENMS/MJF METAR and TAF weather

Enter ICAO airport designator
Station Type Date Time Source
ENMS METAR 2019/04/18 17:50 UTC NOAA

ENMS 181750Z VRB02KT 9999 -RA FEW036 SCT060 10/M04 Q1034 RMK WIND 412FT 24005KT 190V290


Station Type Date Time Source
ENMS Decoded METAR 2019/04/18 17:50 UTC NOAA

Mosjoen Kjaerstad, Norway (ENMS) 65-48N 013-08E
Apr 18, 2019 - 01:50 PM EDT / 2019.04.18 1750 UTC
Wind: Variable at 2 MPH (2 KT):0
Visibility: greater than 7 mile(s):0
Sky conditions: partly cloudy
Weather: light rain
Temperature: 50 F (10 C)
Dew Point: 24 F (-4 C)
Relative Humidity: 37%
Pressure (altimeter): 30.53 in. Hg (1034 hPa)
ob: ENMS 181750Z VRB02KT 9999 -RA FEW036 SCT060 10/M04 Q1034 RMK WIND 412FT 24005KT 190V290
cycle: 18

Station Type Date Time Source
ENMS TAF UTC NOAA

Error!

Example: see airport list